sensor_id;sensor_type;location;lat;lon;timestamp;pressure;altitude;pressure_sealevel;temperature;humidity
52343;BME280;38277;51.972;4.624;2023-01-28T00:00:01;103220.0;;;5.1;81.0
52343;BME280;38277;51.972;4.624;2023-01-28T00:09:46;103220.0;;;5.1;80.5
52343;BME280;38277;51.972;4.624;2023-01-28T00:13:49;103230.0;;;5.1;80.5
52343;BME280;38277;51.972;4.624;2023-01-28T00:18:07;103230.0;;;5.1;80.5
52343;BME280;38277;51.972;4.624;2023-01-28T00:22:28;103230.0;;;5.1;80.5
52343;BME280;38277;51.972;4.624;2023-01-28T00:26:58;103220.0;;;5.0;80.0
52343;BME280;38277;51.972;4.624;2023-01-28T00:36:13;103220.0;;;5.0;79.5
52343;BME280;38277;51.972;4.624;2023-01-28T00:40:20;103220.0;;;5.0;79.5
52343;BME280;38277;51.972;4.624;2023-01-28T00:45:00;103220.0;;;5.0;79.5
52343;BME280;38277;51.972;4.624;2023-01-28T00:49:24;103220.0;;;5.0;80.0
52343;BME280;38277;51.972;4.624;2023-01-28T00:54:14;103230.0;;;5.0;80.0
52343;BME280;38277;51.972;4.624;2023-01-28T00:58:22;103220.0;;;5.0;80.5
52343;BME280;38277;51.972;4.624;2023-01-28T01:02:55;103220.0;;;5.0;80.0
52343;BME280;38277;51.972;4.624;2023-01-28T01:08:08;103220.0;;;5.0;80.5
52343;BME280;38277;51.972;4.624;2023-01-28T01:12:40;103220.0;;;5.0;80.5
52343;BME280;38277;51.972;4.624;2023-01-28T01:16:23;103220.0;;;5.0;80.0
52343;BME280;38277;51.972;4.624;2023-01-28T01:20:55;103220.0;;;4.9;79.5
52343;BME280;38277;51.972;4.624;2023-01-28T01:25:38;103220.0;;;4.9;79.0
52343;BME280;38277;51.972;4.624;2023-01-28T01:30:58;103220.0;;;4.9;79.0
52343;BME280;38277;51.972;4.624;2023-01-28T01:34:31;103210.0;;;4.9;79.0
52343;BME280;38277;51.972;4.624;2023-01-28T01:39:10;103210.0;;;4.9;79.5
52343;BME280;38277;51.972;4.624;2023-01-28T01:43:21;103210.0;;;5.0;80.0
52343;BME280;38277;51.972;4.624;2023-01-28T01:49:49;103220.0;;;5.0;80.0
52343;BME280;38277;51.972;4.624;2023-01-28T01:52:44;103210.0;;;5.0;80.0
52343;BME280;38277;51.972;4.624;2023-01-28T01:57:23;103220.0;;;5.0;80.5
52343;BME280;38277;51.972;4.624;2023-01-28T02:01:48;103220.0;;;5.0;80.5
52343;BME280;38277;51.972;4.624;2023-01-28T02:06:36;103220.0;;;5.0;81.0
52343;BME280;38277;51.972;4.624;2023-01-28T02:10:35;103210.0;;;5.0;81.0
52343;BME280;38277;51.972;4.624;2023-01-28T02:15:16;103210.0;;;5.0;81.5
52343;BME280;38277;51.972;4.624;2023-01-28T02:19:43;103210.0;;;5.0;81.5
52343;BME280;38277;51.972;4.624;2023-01-28T02:26:09;103220.0;;;5.0;81.5
52343;BME280;38277;51.972;4.624;2023-01-28T02:30:41;103230.0;;;5.0;81.5
52343;BME280;38277;51.972;4.624;2023-01-28T02:34:18;103230.0;;;5.0;82.0
52343;BME280;38277;51.972;4.624;2023-01-28T02:38:45;103240.0;;;5.0;82.0
52343;BME280;38277;51.972;4.624;2023-01-28T02:42:03;103240.0;;;5.1;82.0
52343;BME280;38277;51.972;4.624;2023-01-28T02:47:08;103230.0;;;5.1;82.0
52343;BME280;38277;51.972;4.624;2023-01-28T02:51:37;103230.0;;;5.1;82.0
52343;BME280;38277;51.972;4.624;2023-01-28T02:56:21;103230.0;;;5.1;82.0
52343;BME280;38277;51.972;4.624;2023-01-28T03:01:05;103230.0;;;5.1;82.0
52343;BME280;38277;51.972;4.624;2023-01-28T03:05:22;103230.0;;;5.0;82.0
52343;BME280;38277;51.972;4.624;2023-01-28T03:09:03;103230.0;;;5.0;82.0
52343;BME280;38277;51.972;4.624;2023-01-28T03:18:34;103240.0;;;5.0;82.0
52343;BME280;38277;51.972;4.624;2023-01-28T03:23:25;103240.0;;;5.0;82.5
52343;BME280;38277;51.972;4.624;2023-01-28T03:27:13;103240.0;;;5.0;82.5
52343;BME280;38277;51.972;4.624;2023-01-28T03:32:27;103230.0;;;5.0;82.0
52343;BME280;38277;51.972;4.624;2023-01-28T03:37:01;103240.0;;;4.9;81.0
52343;BME280;38277;51.972;4.624;2023-01-28T03:41:25;103230.0;;;4.8;80.5
52343;BME280;38277;51.972;4.624;2023-01-28T03:45:18;103230.0;;;4.8;80.5
52343;BME280;38277;51.972;4.624;2023-01-28T03:50:27;103240.0;;;4.8;80.5
52343;BME280;38277;51.972;4.624;2023-01-28T03:53:54;103230.0;;;4.8;80.0
52343;BME280;38277;51.972;4.624;2023-01-28T03:59:28;103230.0;;;4.8;79.5
52343;BME280;38277;51.972;4.624;2023-01-28T04:03:16;103240.0;;;4.7;79.5
52343;BME280;38277;51.972;4.624;2023-01-28T04:07:38;103260.0;;;4.7;79.5
52343;BME280;38277;51.972;4.624;2023-01-28T04:12:17;103260.0;;;4.8;79.5
52343;BME280;38277;51.972;4.624;2023-01-28T04:16:27;103260.0;;;4.8;79.5
52343;BME280;38277;51.972;4.624;2023-01-28T04:20:53;103250.0;;;4.8;79.5
52343;BME280;38277;51.972;4.624;2023-01-28T04:30:10;103280.0;;;4.8;80.0
52343;BME280;38277;51.972;4.624;2023-01-28T04:34:46;103280.0;;;4.8;79.5
52343;BME280;38277;51.972;4.624;2023-01-28T04:39:16;103280.0;;;4.8;80.0
52343;BME280;38277;51.972;4.624;2023-01-28T04:43:34;103260.0;;;4.8;80.0
52343;BME280;38277;51.972;4.624;2023-01-28T04:52:24;103250.0;;;4.7;80.0
52343;BME280;38277;51.972;4.624;2023-01-28T04:56:50;103260.0;;;4.7;79.5
52343;BME280;38277;51.972;4.624;2023-01-28T05:01:22;103250.0;;;4.7;79.5
52343;BME280;38277;51.972;4.624;2023-01-28T05:05:53;103250.0;;;4.7;79.0
52343;BME280;38277;51.972;4.624;2023-01-28T05:11:21;103250.0;;;4.7;79.0
52343;BME280;38277;51.972;4.624;2023-01-28T05:15:19;103260.0;;;4.7;79.0
52343;BME280;38277;51.972;4.624;2023-01-28T05:19:48;103270.0;;;4.6;79.0
52343;BME280;38277;51.972;4.624;2023-01-28T05:24:15;103260.0;;;4.6;79.0
52343;BME280;38277;51.972;4.624;2023-01-28T05:29:26;103270.0;;;4.6;79.0
52343;BME280;38277;51.972;4.624;2023-01-28T05:33:00;103250.0;;;4.6;79.0
52343;BME280;38277;51.972;4.624;2023-01-28T05:37:34;103250.0;;;4.6;79.0
52343;BME280;38277;51.972;4.624;2023-01-28T05:42:10;103270.0;;;4.6;78.5
52343;BME280;38277;51.972;4.624;2023-01-28T05:46:47;103250.0;;;4.6;78.5
52343;BME280;38277;51.972;4.624;2023-01-28T05:51:00;103250.0;;;4.6;78.5
52343;BME280;38277;51.972;4.624;2023-01-28T05:55:46;103250.0;;;4.6;78.5
52343;BME280;38277;51.972;4.624;2023-01-28T06:00:05;103250.0;;;4.6;78.5
52343;BME280;38277;51.972;4.624;2023-01-28T06:04:45;103260.0;;;4.6;78.5
52343;BME280;38277;51.972;4.624;2023-01-28T06:09:01;103270.0;;;4.6;79.0
52343;BME280;38277;51.972;4.624;2023-01-28T06:13:43;103250.0;;;4.6;79.5
52343;BME280;38277;51.972;4.624;2023-01-28T06:18:18;103260.0;;;4.6;79.5
52343;BME280;38277;51.972;4.624;2023-01-28T06:22:31;103260.0;;;4.6;79.5
52343;BME280;38277;51.972;4.624;2023-01-28T06:27:05;103270.0;;;4.6;79.0
52343;BME280;38277;51.972;4.624;2023-01-28T06:31:37;103280.0;;;4.6;79.0
52343;BME280;38277;51.972;4.624;2023-01-28T06:49:33;103290.0;;;4.6;79.0
52343;BME280;38277;51.972;4.624;2023-01-28T06:54:16;103280.0;;;4.6;80.0
52343;BME280;38277;51.972;4.624;2023-01-28T07:03:08;103280.0;;;4.7;80.5
52343;BME280;38277;51.972;4.624;2023-01-28T07:07:39;103290.0;;;4.7;81.0
52343;BME280;38277;51.972;4.624;2023-01-28T07:12:06;103290.0;;;4.7;81.0
52343;BME280;38277;51.972;4.624;2023-01-28T07:20:52;103300.0;;;4.7;80.0
52343;BME280;38277;51.972;4.624;2023-01-28T07:30:13;103300.0;;;4.6;79.0
52343;BME280;38277;51.972;4.624;2023-01-28T07:39:11;103290.0;;;4.5;79.5
52343;BME280;38277;51.972;4.624;2023-01-28T07:43:48;103290.0;;;4.4;79.5
52343;BME280;38277;51.972;4.624;2023-01-28T07:47:59;103300.0;;;4.3;79.5
52343;BME280;38277;51.972;4.624;2023-01-28T07:53:07;103300.0;;;4.3;79.5
52343;BME280;38277;51.972;4.624;2023-01-28T07:57:17;103320.0;;;4.3;80.0
52343;BME280;38277;51.972;4.624;2023-01-28T08:14:52;103320.0;;;4.2;80.5
52343;BME280;38277;51.972;4.624;2023-01-28T08:19:25;103320.0;;;4.2;80.5
52343;BME280;38277;51.972;4.624;2023-01-28T08:23:57;103320.0;;;4.2;81.0
52343;BME280;38277;51.972;4.624;2023-01-28T08:29:26;103330.0;;;4.3;81.0
52343;BME280;38277;51.972;4.624;2023-01-28T08:33:03;103330.0;;;4.3;81.0
52343;BME280;38277;51.972;4.624;2023-01-28T08:38:51;103340.0;;;4.5;80.5
52343;BME280;38277;51.972;4.624;2023-01-28T08:42:15;103350.0;;;4.6;80.5
52343;BME280;38277;51.972;4.624;2023-01-28T08:46:20;103370.0;;;4.7;80.5
52343;BME280;38277;51.972;4.624;2023-01-28T08:52:02;103360.0;;;4.8;80.0
52343;BME280;38277;51.972;4.624;2023-01-28T08:56:26;103370.0;;;4.8;80.0
52343;BME280;38277;51.972;4.624;2023-01-28T09:00:18;103360.0;;;4.8;80.0
52343;BME280;38277;51.972;4.624;2023-01-28T09:05:35;103370.0;;;4.9;79.5
52343;BME280;38277;51.972;4.624;2023-01-28T09:08:55;103360.0;;;4.9;79.5
52343;BME280;38277;51.972;4.624;2023-01-28T09:14:54;103360.0;;;4.8;79.0
52343;BME280;38277;51.972;4.624;2023-01-28T09:18:37;103370.0;;;4.7;79.0
52343;BME280;38277;51.972;4.624;2023-01-28T09:22:48;103380.0;;;4.7;79.0
52343;BME280;38277;51.972;4.624;2023-01-28T09:26:50;103390.0;;;4.7;79.5
52343;BME280;38277;51.972;4.624;2023-01-28T09:32:20;103400.0;;;4.8;79.5
52343;BME280;38277;51.972;4.624;2023-01-28T09:36:46;103410.0;;;5.0;79.5
52343;BME280;38277;51.972;4.624;2023-01-28T09:40:31;103410.0;;;5.1;79.0
52343;BME280;38277;51.972;4.624;2023-01-28T09:46:04;103410.0;;;5.3;79.0
52343;BME280;38277;51.972;4.624;2023-01-28T09:50:39;103390.0;;;5.4;78.5
52343;BME280;38277;51.972;4.624;2023-01-28T09:55:01;103400.0;;;5.3;78.0
52343;BME280;38277;51.972;4.624;2023-01-28T09:58:40;103400.0;;;5.2;78.0
52343;BME280;38277;51.972;4.624;2023-01-28T10:04:44;103400.0;;;5.2;78.5
52343;BME280;38277;51.972;4.624;2023-01-28T10:17:42;103420.0;;;5.0;78.0
52343;BME280;38277;51.972;4.624;2023-01-28T10:21:19;103410.0;;;4.9;77.5
52343;BME280;38277;51.972;4.624;2023-01-28T10:25:31;103410.0;;;4.9;77.0
52343;BME280;38277;51.972;4.624;2023-01-28T10:30:22;103400.0;;;4.9;78.0
52343;BME280;38277;51.972;4.624;2023-01-28T10:34:21;103410.0;;;4.9;77.0
52343;BME280;38277;51.972;4.624;2023-01-28T10:38:56;103400.0;;;4.9;77.5
52343;BME280;38277;51.972;4.624;2023-01-28T10:52:21;103400.0;;;4.9;73.5
52343;BME280;38277;51.972;4.624;2023-01-28T10:57:04;103390.0;;;4.9;75.0
52343;BME280;38277;51.972;4.624;2023-01-28T11:15:00;103340.0;;;5.1;75.0
52343;BME280;38277;51.972;4.624;2023-01-28T11:19:47;103310.0;;;5.1;74.5
52343;BME280;38277;51.972;4.624;2023-01-28T11:28:27;103300.0;;;5.2;74.5
52343;BME280;38277;51.972;4.624;2023-01-28T11:33:30;103300.0;;;5.3;74.5
52343;BME280;38277;51.972;4.624;2023-01-28T11:47:05;103280.0;;;5.4;74.0
52343;BME280;38277;51.972;4.624;2023-01-28T11:51:52;103290.0;;;5.5;74.0
52343;BME280;38277;51.972;4.624;2023-01-28T11:57:24;103300.0;;;5.6;73.0
52343;BME280;38277;51.972;4.624;2023-01-28T12:08:22;103310.0;;;5.7;75.0
52343;BME280;38277;51.972;4.624;2023-01-28T12:13:04;103320.0;;;5.7;75.0
52343;BME280;38277;51.972;4.624;2023-01-28T12:18:36;103300.0;;;5.7;75.5
52343;BME280;38277;51.972;4.624;2023-01-28T12:28:47;103330.0;;;5.8;75.0
52343;BME280;38277;51.972;4.624;2023-01-28T12:34:30;103340.0;;;5.9;75.5
52343;BME280;38277;51.972;4.624;2023-01-28T12:39:59;103340.0;;;6.0;75.5
52343;BME280;38277;51.972;4.624;2023-01-28T12:46:40;103320.0;;;6.3;74.0
52343;BME280;38277;51.972;4.624;2023-01-28T12:49:45;103310.0;;;6.3;72.0
52343;BME280;38277;51.972;4.624;2023-01-28T12:52:59;103290.0;;;6.3;71.5
52343;BME280;38277;51.972;4.624;2023-01-28T12:56:33;103270.0;;;6.4;73.0
52343;BME280;38277;51.972;4.624;2023-01-28T12:58:30;103260.0;;;6.5;75.0
52343;BME280;38277;51.972;4.624;2023-01-28T13:04:07;103220.0;;;6.6;73.0
52343;BME280;38277;51.972;4.624;2023-01-28T13:07:49;103220.0;;;7.0;71.5
52343;BME280;38277;51.972;4.624;2023-01-28T13:12:10;103220.0;;;8.3;71.5
52343;BME280;38277;51.972;4.624;2023-01-28T13:16:39;103210.0;;;10.8;64.5
52343;BME280;38277;51.972;4.624;2023-01-28T13:21:14;103210.0;;;13.8;55.0
52343;BME280;38277;51.972;4.624;2023-01-28T13:25:26;103220.0;;;16.5;48.0
52343;BME280;38277;51.972;4.624;2023-01-28T13:30:23;103200.0;;;18.5;45.5
52343;BME280;38277;51.972;4.624;2023-01-28T13:34:42;103190.0;;;19.8;43.5
52343;BME280;38277;51.972;4.624;2023-01-28T13:39:46;103180.0;;;20.5;41.0
52343;BME280;38277;51.972;4.624;2023-01-28T13:44:29;103180.0;;;20.7;39.5
52343;BME280;38277;51.972;4.624;2023-01-28T13:48:29;103200.0;;;20.6;40.0
52343;BME280;38277;51.972;4.624;2023-01-28T13:53:32;103200.0;;;20.2;40.5
52343;BME280;38277;51.972;4.624;2023-01-28T13:57:42;103210.0;;;19.4;41.5
52343;BME280;38277;51.972;4.624;2023-01-28T14:04:45;103210.0;;;18.6;42.0
52343;BME280;38277;51.972;4.624;2023-01-28T14:10:09;103190.0;;;17.7;43.5
52343;BME280;38277;51.972;4.624;2023-01-28T14:17:02;103210.0;;;16.7;48.0
52343;BME280;38277;51.972;4.624;2023-01-28T14:18:49;103210.0;;;16.0;47.5
52343;BME280;38277;51.972;4.624;2023-01-28T14:19:40;103220.0;;;15.2;48.5
52343;BME280;38277;51.972;4.624;2023-01-28T14:23:59;103220.0;;;14.4;51.0
52343;BME280;38277;51.972;4.624;2023-01-28T14:29:43;103220.0;;;13.6;51.5
52343;BME280;38277;51.972;4.624;2023-01-28T14:33:10;103230.0;;;13.0;53.0
52343;BME280;38277;51.972;4.624;2023-01-28T14:42:13;103210.0;;;12.0;55.0
52343;BME280;38277;51.972;4.624;2023-01-28T14:47:04;103210.0;;;11.6;56.0
52343;BME280;38277;51.972;4.624;2023-01-28T14:52:23;103210.0;;;11.0;57.5
52343;BME280;38277;51.972;4.624;2023-01-28T15:00:17;103230.0;;;10.1;60.5
52343;BME280;38277;51.972;4.624;2023-01-28T15:04:48;103240.0;;;9.8;62.5
52343;BME280;38277;51.972;4.624;2023-01-28T15:09:18;103250.0;;;9.5;63.0
52343;BME280;38277;51.972;4.624;2023-01-28T15:18:15;103250.0;;;9.3;65.5
52343;BME280;38277;51.972;4.624;2023-01-28T15:26:58;103250.0;;;8.8;65.5
52343;BME280;38277;51.972;4.624;2023-01-28T15:35:52;103290.0;;;8.3;67.5
52343;BME280;38277;51.972;4.624;2023-01-28T15:40:54;103260.0;;;8.1;68.5
52343;BME280;38277;51.972;4.624;2023-01-28T15:45:13;103250.0;;;8.0;68.0
52343;BME280;38277;51.972;4.624;2023-01-28T15:49:33;103260.0;;;7.9;68.5
52343;BME280;38277;51.972;4.624;2023-01-28T15:54:50;103260.0;;;7.8;69.0
52343;BME280;38277;51.972;4.624;2023-01-28T15:58:28;103280.0;;;7.7;69.0
52343;BME280;38277;51.972;4.624;2023-01-28T16:03:09;103280.0;;;7.6;69.0
52343;BME280;38277;51.972;4.624;2023-01-28T16:07:44;103270.0;;;7.5;69.5
52343;BME280;38277;51.972;4.624;2023-01-28T16:12:51;103280.0;;;7.5;70.5
52343;BME280;38277;51.972;4.624;2023-01-28T16:16:45;103280.0;;;7.4;70.0
52343;BME280;38277;51.972;4.624;2023-01-28T16:20:52;103290.0;;;7.3;69.0
52343;BME280;38277;51.972;4.624;2023-01-28T16:25:35;103270.0;;;7.2;68.5
52343;BME280;38277;51.972;4.624;2023-01-28T16:29:56;103280.0;;;7.1;69.0
52343;BME280;38277;51.972;4.624;2023-01-28T16:39:09;103280.0;;;6.9;69.0
52343;BME280;38277;51.972;4.624;2023-01-28T16:43:44;103280.0;;;6.8;70.0
52343;BME280;38277;51.972;4.624;2023-01-28T16:47:59;103280.0;;;6.8;71.0
52343;BME280;38277;51.972;4.624;2023-01-28T16:52:48;103270.0;;;6.7;71.5
52343;BME280;38277;51.972;4.624;2023-01-28T17:01:34;103270.0;;;6.7;72.5
52343;BME280;38277;51.972;4.624;2023-01-28T17:06:07;103280.0;;;6.7;72.5
52343;BME280;38277;51.972;4.624;2023-01-28T17:14:50;103290.0;;;6.6;73.0
52343;BME280;38277;51.972;4.624;2023-01-28T17:19:49;103290.0;;;6.6;73.0
52343;BME280;38277;51.972;4.624;2023-01-28T17:24:36;103290.0;;;6.6;73.5
52343;BME280;38277;51.972;4.624;2023-01-28T17:28:27;103270.0;;;6.6;73.5
52343;BME280;38277;51.972;4.624;2023-01-28T17:33:35;103290.0;;;6.5;74.0
52343;BME280;38277;51.972;4.624;2023-01-28T17:37:43;103290.0;;;6.5;74.0
52343;BME280;38277;51.972;4.624;2023-01-28T17:42:55;103290.0;;;6.5;75.0
52343;BME280;38277;51.972;4.624;2023-01-28T17:46:40;103280.0;;;6.5;75.5
52343;BME280;38277;51.972;4.624;2023-01-28T17:51:48;103280.0;;;6.5;75.5
52343;BME280;38277;51.972;4.624;2023-01-28T17:55:46;103280.0;;;6.5;75.0
52343;BME280;38277;51.972;4.624;2023-01-28T17:59:56;103300.0;;;6.4;75.0
52343;BME280;38277;51.972;4.624;2023-01-28T18:04:36;103300.0;;;6.4;75.0
52343;BME280;38277;51.972;4.624;2023-01-28T18:09:45;103290.0;;;6.4;75.0
52343;BME280;38277;51.972;4.624;2023-01-28T18:13:43;103300.0;;;6.3;75.0
52343;BME280;38277;51.972;4.624;2023-01-28T18:17:53;103320.0;;;6.3;75.0
52343;BME280;38277;51.972;4.624;2023-01-28T18:22:24;103330.0;;;6.3;74.5
52343;BME280;38277;51.972;4.624;2023-01-28T18:27:11;103340.0;;;6.2;74.5
52343;BME280;38277;51.972;4.624;2023-01-28T18:36:07;103350.0;;;6.2;74.5
52343;BME280;38277;51.972;4.624;2023-01-28T18:40:30;103340.0;;;6.2;75.0
52343;BME280;38277;51.972;4.624;2023-01-28T18:45:12;103340.0;;;6.2;75.5
52343;BME280;38277;51.972;4.624;2023-01-28T18:49:42;103340.0;;;6.2;75.5
52343;BME280;38277;51.972;4.624;2023-01-28T18:54:01;103340.0;;;6.2;75.5
52343;BME280;38277;51.972;4.624;2023-01-28T18:58:27;103340.0;;;6.2;76.0
52343;BME280;38277;51.972;4.624;2023-01-28T19:02:53;103340.0;;;6.2;76.0
52343;BME280;38277;51.972;4.624;2023-01-28T19:12:06;103340.0;;;6.2;77.0
52343;BME280;38277;51.972;4.624;2023-01-28T19:16:25;103340.0;;;6.3;77.5
52343;BME280;38277;51.972;4.624;2023-01-28T19:21:14;103330.0;;;6.3;78.0
52343;BME280;38277;51.972;4.624;2023-01-28T19:25:23;103340.0;;;6.3;78.5
52343;BME280;38277;51.972;4.624;2023-01-28T19:29:59;103340.0;;;6.3;79.0
52343;BME280;38277;51.972;4.624;2023-01-28T19:34:25;103340.0;;;6.3;79.5
52343;BME280;38277;51.972;4.624;2023-01-28T19:39:19;103340.0;;;6.3;79.5
52343;BME280;38277;51.972;4.624;2023-01-28T19:43:40;103340.0;;;6.3;79.0
52343;BME280;38277;51.972;4.624;2023-01-28T19:48:01;103330.0;;;6.3;78.5
52343;BME280;38277;51.972;4.624;2023-01-28T19:52:38;103330.0;;;6.2;79.0
52343;BME280;38277;51.972;4.624;2023-01-28T19:57:06;103330.0;;;6.2;78.0
52343;BME280;38277;51.972;4.624;2023-01-28T20:01:47;103310.0;;;6.1;78.0
52343;BME280;38277;51.972;4.624;2023-01-28T20:05:52;103330.0;;;6.1;77.0
52343;BME280;38277;51.972;4.624;2023-01-28T20:10:32;103330.0;;;6.1;77.0
52343;BME280;38277;51.972;4.624;2023-01-28T20:19:34;103330.0;;;6.0;76.5
52343;BME280;38277;51.972;4.624;2023-01-28T20:24:06;103330.0;;;6.0;76.0
52343;BME280;38277;51.972;4.624;2023-01-28T20:28:23;103330.0;;;6.0;76.5
52343;BME280;38277;51.972;4.624;2023-01-28T20:32:50;103320.0;;;5.9;76.0
52343;BME280;38277;51.972;4.624;2023-01-28T20:37:31;103320.0;;;5.9;76.0
52343;BME280;38277;51.972;4.624;2023-01-28T20:41:57;103320.0;;;5.9;76.0
52343;BME280;38277;51.972;4.624;2023-01-28T20:46:41;103330.0;;;5.9;76.5
52343;BME280;38277;51.972;4.624;2023-01-28T20:50:54;103320.0;;;5.9;76.5
52343;BME280;38277;51.972;4.624;2023-01-28T20:56:17;103310.0;;;5.9;77.0
52343;BME280;38277;51.972;4.624;2023-01-28T21:00:17;103310.0;;;5.9;77.0
52343;BME280;38277;51.972;4.624;2023-01-28T21:04:38;103310.0;;;5.9;77.0
52343;BME280;38277;51.972;4.624;2023-01-28T21:09:12;103300.0;;;5.8;76.5
52343;BME280;38277;51.972;4.624;2023-01-28T21:13:22;103300.0;;;5.8;76.5
52343;BME280;38277;51.972;4.624;2023-01-28T21:22:35;103320.0;;;5.7;77.0
52343;BME280;38277;51.972;4.624;2023-01-28T21:26:51;103310.0;;;5.7;77.0
52343;BME280;38277;51.972;4.624;2023-01-28T21:32:05;103320.0;;;5.6;76.5
52343;BME280;38277;51.972;4.624;2023-01-28T21:35:51;103330.0;;;5.6;76.5
52343;BME280;38277;51.972;4.624;2023-01-28T21:40:40;103320.0;;;5.6;76.5
52343;BME280;38277;51.972;4.624;2023-01-28T21:44:52;103330.0;;;5.6;77.0
52343;BME280;38277;51.972;4.624;2023-01-28T21:49:24;103330.0;;;5.6;76.5
52343;BME280;38277;51.972;4.624;2023-01-28T21:54:17;103320.0;;;5.6;76.5
52343;BME280;38277;51.972;4.624;2023-01-28T21:58:28;103310.0;;;5.6;77.0
52343;BME280;38277;51.972;4.624;2023-01-28T22:03:19;103310.0;;;5.6;76.5
52343;BME280;38277;51.972;4.624;2023-01-28T22:08:10;103310.0;;;5.6;77.0
52343;BME280;38277;51.972;4.624;2023-01-28T22:12:05;103310.0;;;5.6;77.0
52343;BME280;38277;51.972;4.624;2023-01-28T22:16:35;103310.0;;;5.7;77.0
52343;BME280;38277;51.972;4.624;2023-01-28T22:20:56;103300.0;;;5.7;77.0
52343;BME280;38277;51.972;4.624;2023-01-28T22:25:44;103290.0;;;5.7;77.0
52343;BME280;38277;51.972;4.624;2023-01-28T22:31:05;103300.0;;;5.7;77.5
52343;BME280;38277;51.972;4.624;2023-01-28T22:34:23;103290.0;;;5.7;77.0
52343;BME280;38277;51.972;4.624;2023-01-28T22:39:15;103290.0;;;5.7;76.5
52343;BME280;38277;51.972;4.624;2023-01-28T22:43:45;103280.0;;;5.7;77.0
52343;BME280;38277;51.972;4.624;2023-01-28T22:48:16;103290.0;;;5.7;77.5
52343;BME280;38277;51.972;4.624;2023-01-28T22:52:24;103270.0;;;5.7;77.5
52343;BME280;38277;51.972;4.624;2023-01-28T22:57:09;103280.0;;;5.7;78.0
52343;BME280;38277;51.972;4.624;2023-01-28T23:01:39;103280.0;;;5.8;78.0
52343;BME280;38277;51.972;4.624;2023-01-28T23:05:51;103260.0;;;5.8;78.5
52343;BME280;38277;51.972;4.624;2023-01-28T23:10:26;103270.0;;;5.8;78.0
52343;BME280;38277;51.972;4.624;2023-01-28T23:14:59;103280.0;;;5.8;78.0
52343;BME280;38277;51.972;4.624;2023-01-28T23:24:01;103270.0;;;5.8;78.0
52343;BME280;38277;51.972;4.624;2023-01-28T23:28:45;103260.0;;;5.9;78.5
52343;BME280;38277;51.972;4.624;2023-01-28T23:33:03;103260.0;;;5.9;79.0
52343;BME280;38277;51.972;4.624;2023-01-28T23:37:20;103260.0;;;5.9;78.5
52343;BME280;38277;51.972;4.624;2023-01-28T23:42:10;103260.0;;;5.9;78.0
52343;BME280;38277;51.972;4.624;2023-01-28T23:46:38;103240.0;;;5.9;78.5
52343;BME280;38277;51.972;4.624;2023-01-28T23:50:57;103230.0;;;5.9;78.0
